sensor_id;sensor_type;location;lat;lon;timestamp;P1;durP1;ratioP1;P2;durP2;ratioP2
19149;SDS011;9707;49.158;8.632;2022-11-20T00:00:45;4.93;;;3.45;;
19149;SDS011;9707;49.158;8.632;2022-11-20T00:03:10;3.42;;;3.13;;
19149;SDS011;9707;49.158;8.632;2022-11-20T00:05:35;4.07;;;3.38;;
19149;SDS011;9707;49.158;8.632;2022-11-20T00:08:01;4.85;;;3.38;;
19149;SDS011;9707;49.158;8.632;2022-11-20T00:10:26;4.05;;;3.65;;
19149;SDS011;9707;49.158;8.632;2022-11-20T00:12:51;5.25;;;4.13;;
19149;SDS011;9707;49.158;8.632;2022-11-20T00:15:16;5.40;;;3.97;;
19149;SDS011;9707;49.158;8.632;2022-11-20T00:17:42;4.30;;;3.83;;
19149;SDS011;9707;49.158;8.632;2022-11-20T00:20:07;4.60;;;3.70;;
19149;SDS011;9707;49.158;8.632;2022-11-20T00:22:33;4.20;;;3.80;;
19149;SDS011;9707;49.158;8.632;2022-11-20T00:24:58;5.28;;;3.83;;
19149;SDS011;9707;49.158;8.632;2022-11-20T00:27:23;5.22;;;4.05;;
19149;SDS011;9707;49.158;8.632;2022-11-20T00:29:49;4.97;;;3.83;;
19149;SDS011;9707;49.158;8.632;2022-11-20T00:32:14;5.93;;;4.10;;
19149;SDS011;9707;49.158;8.632;2022-11-20T00:34:39;7.28;;;4.43;;
19149;SDS011;9707;49.158;8.632;2022-11-20T00:37:05;4.93;;;3.92;;
19149;SDS011;9707;49.158;8.632;2022-11-20T00:39:30;6.32;;;4.00;;
19149;SDS011;9707;49.158;8.632;2022-11-20T00:41:55;5.63;;;4.10;;
19149;SDS011;9707;49.158;8.632;2022-11-20T00:44:21;5.32;;;4.10;;
19149;SDS011;9707;49.158;8.632;2022-11-20T00:46:46;4.97;;;4.25;;
19149;SDS011;9707;49.158;8.632;2022-11-20T00:49:11;5.95;;;4.07;;
19149;SDS011;9707;49.158;8.632;2022-11-20T00:51:36;6.47;;;4.35;;
19149;SDS011;9707;49.158;8.632;2022-11-20T00:54:02;4.72;;;4.03;;
19149;SDS011;9707;49.158;8.632;2022-11-20T00:56:27;6.43;;;3.90;;
19149;SDS011;9707;49.158;8.632;2022-11-20T00:58:53;5.10;;;4.13;;
19149;SDS011;9707;49.158;8.632;2022-11-20T01:01:19;5.10;;;4.05;;
19149;SDS011;9707;49.158;8.632;2022-11-20T01:03:50;5.10;;;4.18;;
19149;SDS011;9707;49.158;8.632;2022-11-20T01:06:21;7.30;;;3.85;;
19149;SDS011;9707;49.158;8.632;2022-11-20T01:08:46;4.65;;;3.35;;
19149;SDS011;9707;49.158;8.632;2022-11-20T01:11:13;4.10;;;3.53;;
19149;SDS011;9707;49.158;8.632;2022-11-20T01:13:40;3.53;;;3.10;;
19149;SDS011;9707;49.158;8.632;2022-11-20T01:18:37;5.25;;;3.65;;
19149;SDS011;9707;49.158;8.632;2022-11-20T01:21:05;4.22;;;3.63;;
19149;SDS011;9707;49.158;8.632;2022-11-20T01:23:35;3.40;;;2.97;;
19149;SDS011;9707;49.158;8.632;2022-11-20T01:26:06;4.32;;;3.70;;
19149;SDS011;9707;49.158;8.632;2022-11-20T01:28:33;6.13;;;3.80;;
19149;SDS011;9707;49.158;8.632;2022-11-20T01:30:59;4.78;;;3.90;;
19149;SDS011;9707;49.158;8.632;2022-11-20T01:33:25;6.65;;;4.20;;
19149;SDS011;9707;49.158;8.632;2022-11-20T01:35:50;5.90;;;4.85;;
19149;SDS011;9707;49.158;8.632;2022-11-20T01:38:16;10.23;;;5.38;;
19149;SDS011;9707;49.158;8.632;2022-11-20T01:40:41;5.68;;;4.25;;
19149;SDS011;9707;49.158;8.632;2022-11-20T01:43:13;7.18;;;4.50;;
19149;SDS011;9707;49.158;8.632;2022-11-20T01:48:33;9.40;;;5.60;;
19149;SDS011;9707;49.158;8.632;2022-11-20T01:51:06;8.30;;;5.85;;
19149;SDS011;9707;49.158;8.632;2022-11-20T01:53:37;7.63;;;5.57;;
19149;SDS011;9707;49.158;8.632;2022-11-20T01:56:03;7.45;;;5.25;;
19149;SDS011;9707;49.158;8.632;2022-11-20T01:58:33;7.22;;;5.07;;
19149;SDS011;9707;49.158;8.632;2022-11-20T02:01:04;6.53;;;4.95;;
19149;SDS011;9707;49.158;8.632;2022-11-20T02:03:29;7.82;;;5.75;;
19149;SDS011;9707;49.158;8.632;2022-11-20T02:05:57;8.70;;;6.57;;
19149;SDS011;9707;49.158;8.632;2022-11-20T02:08:30;8.57;;;5.43;;
19149;SDS011;9707;49.158;8.632;2022-11-20T02:10:57;8.35;;;6.30;;
19149;SDS011;9707;49.158;8.632;2022-11-20T02:13:22;8.80;;;6.28;;
19149;SDS011;9707;49.158;8.632;2022-11-20T02:16:11;9.38;;;6.40;;
19149;SDS011;9707;49.158;8.632;2022-11-20T02:18:40;9.02;;;6.30;;
19149;SDS011;9707;49.158;8.632;2022-11-20T02:21:07;8.73;;;6.45;;
19149;SDS011;9707;49.158;8.632;2022-11-20T02:26:20;9.13;;;6.57;;
19149;SDS011;9707;49.158;8.632;2022-11-20T02:28:47;10.95;;;7.22;;
19149;SDS011;9707;49.158;8.632;2022-11-20T02:31:13;8.63;;;6.20;;
19149;SDS011;9707;49.158;8.632;2022-11-20T02:33:39;8.63;;;6.38;;
19149;SDS011;9707;49.158;8.632;2022-11-20T02:36:04;8.88;;;6.20;;
19149;SDS011;9707;49.158;8.632;2022-11-20T02:38:29;10.50;;;6.93;;
19149;SDS011;9707;49.158;8.632;2022-11-20T02:40:55;10.02;;;6.18;;
19149;SDS011;9707;49.158;8.632;2022-11-20T02:43:20;8.57;;;6.68;;
19149;SDS011;9707;49.158;8.632;2022-11-20T02:45:45;10.20;;;7.07;;
19149;SDS011;9707;49.158;8.632;2022-11-20T02:48:11;7.93;;;6.07;;
19149;SDS011;9707;49.158;8.632;2022-11-20T02:50:37;11.27;;;6.03;;
19149;SDS011;9707;49.158;8.632;2022-11-20T02:53:03;8.80;;;6.20;;
19149;SDS011;9707;49.158;8.632;2022-11-20T02:55:29;10.68;;;7.10;;
19149;SDS011;9707;49.158;8.632;2022-11-20T02:57:54;9.35;;;6.20;;
19149;SDS011;9707;49.158;8.632;2022-11-20T03:00:19;9.05;;;6.55;;
19149;SDS011;9707;49.158;8.632;2022-11-20T03:02:45;9.27;;;6.20;;
19149;SDS011;9707;49.158;8.632;2022-11-20T03:05:10;6.97;;;5.32;;
19149;SDS011;9707;49.158;8.632;2022-11-20T03:07:35;8.43;;;5.90;;
19149;SDS011;9707;49.158;8.632;2022-11-20T03:10:00;9.93;;;6.55;;
19149;SDS011;9707;49.158;8.632;2022-11-20T03:12:26;13.15;;;8.10;;
19149;SDS011;9707;49.158;8.632;2022-11-20T03:14:51;12.75;;;7.78;;
19149;SDS011;9707;49.158;8.632;2022-11-20T03:17:16;12.93;;;7.15;;
19149;SDS011;9707;49.158;8.632;2022-11-20T03:19:41;10.38;;;6.30;;
19149;SDS011;9707;49.158;8.632;2022-11-20T03:22:07;8.23;;;6.53;;
19149;SDS011;9707;49.158;8.632;2022-11-20T03:24:32;9.70;;;7.47;;
19149;SDS011;9707;49.158;8.632;2022-11-20T03:26:57;9.23;;;6.57;;
19149;SDS011;9707;49.158;8.632;2022-11-20T03:29:22;8.07;;;6.10;;
19149;SDS011;9707;49.158;8.632;2022-11-20T03:31:48;9.10;;;6.95;;
19149;SDS011;9707;49.158;8.632;2022-11-20T03:34:13;7.32;;;5.80;;
19149;SDS011;9707;49.158;8.632;2022-11-20T03:36:39;9.57;;;5.88;;
19149;SDS011;9707;49.158;8.632;2022-11-20T03:39:05;9.20;;;6.22;;
19149;SDS011;9707;49.158;8.632;2022-11-20T03:41:34;8.75;;;6.03;;
19149;SDS011;9707;49.158;8.632;2022-11-20T03:44:03;7.75;;;5.97;;
19149;SDS011;9707;49.158;8.632;2022-11-20T03:46:29;6.88;;;5.85;;
19149;SDS011;9707;49.158;8.632;2022-11-20T03:48:55;8.43;;;6.05;;
19149;SDS011;9707;49.158;8.632;2022-11-20T03:51:24;6.28;;;5.03;;
19149;SDS011;9707;49.158;8.632;2022-11-20T03:53:52;9.38;;;5.10;;
19149;SDS011;9707;49.158;8.632;2022-11-20T03:56:20;6.50;;;5.65;;
19149;SDS011;9707;49.158;8.632;2022-11-20T03:58:48;7.38;;;5.63;;
19149;SDS011;9707;49.158;8.632;2022-11-20T04:01:17;8.18;;;5.65;;
19149;SDS011;9707;49.158;8.632;2022-11-20T04:03:44;5.50;;;4.18;;
19149;SDS011;9707;49.158;8.632;2022-11-20T04:06:14;8.57;;;5.32;;
19149;SDS011;9707;49.158;8.632;2022-11-20T04:08:41;5.00;;;3.58;;
19149;SDS011;9707;49.158;8.632;2022-11-20T04:11:13;5.13;;;3.65;;
19149;SDS011;9707;49.158;8.632;2022-11-20T04:13:40;4.57;;;3.60;;
19149;SDS011;9707;49.158;8.632;2022-11-20T04:16:07;6.45;;;3.35;;
19149;SDS011;9707;49.158;8.632;2022-11-20T04:18:34;5.07;;;3.10;;
19149;SDS011;9707;49.158;8.632;2022-11-20T04:21:00;4.38;;;3.42;;
19149;SDS011;9707;49.158;8.632;2022-11-20T04:23:26;6.18;;;3.30;;
19149;SDS011;9707;49.158;8.632;2022-11-20T04:25:51;3.95;;;3.08;;
19149;SDS011;9707;49.158;8.632;2022-11-20T04:28:17;6.38;;;3.40;;
19149;SDS011;9707;49.158;8.632;2022-11-20T04:30:42;4.90;;;3.10;;
19149;SDS011;9707;49.158;8.632;2022-11-20T04:33:08;5.18;;;2.88;;
19149;SDS011;9707;49.158;8.632;2022-11-20T04:35:33;4.13;;;3.20;;
19149;SDS011;9707;49.158;8.632;2022-11-20T04:37:59;4.38;;;2.83;;
19149;SDS011;9707;49.158;8.632;2022-11-20T04:40:25;3.92;;;2.67;;
19149;SDS011;9707;49.158;8.632;2022-11-20T04:42:50;3.63;;;2.78;;
19149;SDS011;9707;49.158;8.632;2022-11-20T04:45:15;4.13;;;3.10;;
19149;SDS011;9707;49.158;8.632;2022-11-20T04:47:41;5.18;;;3.00;;
19149;SDS011;9707;49.158;8.632;2022-11-20T04:50:06;3.92;;;2.80;;
19149;SDS011;9707;49.158;8.632;2022-11-20T04:52:31;5.15;;;3.65;;
19149;SDS011;9707;49.158;8.632;2022-11-20T04:54:57;12.02;;;5.82;;
19149;SDS011;9707;49.158;8.632;2022-11-20T04:57:22;6.28;;;5.55;;
19149;SDS011;9707;49.158;8.632;2022-11-20T04:59:47;5.68;;;3.42;;
19149;SDS011;9707;49.158;8.632;2022-11-20T05:02:13;5.18;;;3.10;;
19149;SDS011;9707;49.158;8.632;2022-11-20T05:04:38;3.55;;;2.83;;
19149;SDS011;9707;49.158;8.632;2022-11-20T05:07:03;8.48;;;4.05;;
19149;SDS011;9707;49.158;8.632;2022-11-20T05:09:29;5.53;;;2.60;;
19149;SDS011;9707;49.158;8.632;2022-11-20T05:11:54;3.72;;;2.60;;
19149;SDS011;9707;49.158;8.632;2022-11-20T05:14:20;3.40;;;2.72;;
19149;SDS011;9707;49.158;8.632;2022-11-20T05:16:45;7.28;;;3.03;;
19149;SDS011;9707;49.158;8.632;2022-11-20T05:19:10;3.22;;;2.72;;
19149;SDS011;9707;49.158;8.632;2022-11-20T05:21:36;4.85;;;2.80;;
19149;SDS011;9707;49.158;8.632;2022-11-20T05:24:01;4.13;;;2.40;;
19149;SDS011;9707;49.158;8.632;2022-11-20T05:26:26;3.00;;;2.35;;
19149;SDS011;9707;49.158;8.632;2022-11-20T05:28:51;3.83;;;2.50;;
19149;SDS011;9707;49.158;8.632;2022-11-20T05:31:18;3.20;;;2.38;;
19149;SDS011;9707;49.158;8.632;2022-11-20T05:33:46;2.85;;;2.45;;
19149;SDS011;9707;49.158;8.632;2022-11-20T05:36:12;3.42;;;2.42;;
19149;SDS011;9707;49.158;8.632;2022-11-20T05:38:39;5.75;;;2.55;;
19149;SDS011;9707;49.158;8.632;2022-11-20T05:41:11;2.40;;;2.13;;
19149;SDS011;9707;49.158;8.632;2022-11-20T05:43:42;3.55;;;2.38;;
19149;SDS011;9707;49.158;8.632;2022-11-20T05:46:10;2.83;;;2.53;;
19149;SDS011;9707;49.158;8.632;2022-11-20T05:48:37;3.55;;;2.20;;
19149;SDS011;9707;49.158;8.632;2022-11-20T05:51:05;3.53;;;2.40;;
19149;SDS011;9707;49.158;8.632;2022-11-20T05:53:32;3.58;;;2.50;;
19149;SDS011;9707;49.158;8.632;2022-11-20T05:56:02;3.30;;;2.38;;
19149;SDS011;9707;49.158;8.632;2022-11-20T05:58:29;4.13;;;2.60;;
19149;SDS011;9707;49.158;8.632;2022-11-20T06:01:02;4.30;;;2.53;;
19149;SDS011;9707;49.158;8.632;2022-11-20T06:03:29;3.15;;;2.03;;
19149;SDS011;9707;49.158;8.632;2022-11-20T06:05:54;4.55;;;2.35;;
19149;SDS011;9707;49.158;8.632;2022-11-20T06:08:20;3.70;;;2.22;;
19149;SDS011;9707;49.158;8.632;2022-11-20T06:10:45;5.53;;;2.50;;
19149;SDS011;9707;49.158;8.632;2022-11-20T06:13:10;2.20;;;2.00;;
19149;SDS011;9707;49.158;8.632;2022-11-20T06:15:35;3.58;;;2.33;;
19149;SDS011;9707;49.158;8.632;2022-11-20T06:18:01;2.85;;;2.00;;
19149;SDS011;9707;49.158;8.632;2022-11-20T06:20:26;3.53;;;2.13;;
19149;SDS011;9707;49.158;8.632;2022-11-20T06:22:52;3.58;;;2.10;;
19149;SDS011;9707;49.158;8.632;2022-11-20T06:25:17;2.90;;;2.22;;
19149;SDS011;9707;49.158;8.632;2022-11-20T06:27:42;4.10;;;2.00;;
19149;SDS011;9707;49.158;8.632;2022-11-20T06:30:08;2.35;;;1.92;;
19149;SDS011;9707;49.158;8.632;2022-11-20T06:32:33;3.33;;;2.28;;
19149;SDS011;9707;49.158;8.632;2022-11-20T06:34:59;3.03;;;2.08;;
19149;SDS011;9707;49.158;8.632;2022-11-20T06:37:24;2.17;;;1.88;;
19149;SDS011;9707;49.158;8.632;2022-11-20T06:39:49;2.45;;;1.80;;
19149;SDS011;9707;49.158;8.632;2022-11-20T06:42:15;4.25;;;2.67;;
19149;SDS011;9707;49.158;8.632;2022-11-20T06:44:40;3.10;;;2.15;;
19149;SDS011;9707;49.158;8.632;2022-11-20T06:47:05;1.98;;;1.60;;
19149;SDS011;9707;49.158;8.632;2022-11-20T06:49:33;2.45;;;2.05;;
19149;SDS011;9707;49.158;8.632;2022-11-20T06:51:59;4.25;;;2.15;;
19149;SDS011;9707;49.158;8.632;2022-11-20T06:54:24;2.42;;;1.70;;
19149;SDS011;9707;49.158;8.632;2022-11-20T06:56:49;2.92;;;2.00;;
19149;SDS011;9707;49.158;8.632;2022-11-20T06:59:15;4.28;;;2.28;;
19149;SDS011;9707;49.158;8.632;2022-11-20T07:01:40;2.55;;;1.88;;
19149;SDS011;9707;49.158;8.632;2022-11-20T07:04:05;2.38;;;2.10;;
19149;SDS011;9707;49.158;8.632;2022-11-20T07:06:31;3.15;;;2.10;;
19149;SDS011;9707;49.158;8.632;2022-11-20T07:08:56;3.15;;;1.83;;
19149;SDS011;9707;49.158;8.632;2022-11-20T07:11:22;1.85;;;1.70;;
19149;SDS011;9707;49.158;8.632;2022-11-20T07:13:47;2.55;;;2.05;;
19149;SDS011;9707;49.158;8.632;2022-11-20T07:16:13;3.47;;;1.95;;
19149;SDS011;9707;49.158;8.632;2022-11-20T07:18:38;3.03;;;1.88;;
19149;SDS011;9707;49.158;8.632;2022-11-20T07:21:04;2.30;;;2.05;;
19149;SDS011;9707;49.158;8.632;2022-11-20T07:23:32;2.95;;;1.70;;
19149;SDS011;9707;49.158;8.632;2022-11-20T07:25:58;2.17;;;1.50;;
19149;SDS011;9707;49.158;8.632;2022-11-20T07:28:23;2.05;;;1.67;;
19149;SDS011;9707;49.158;8.632;2022-11-20T07:30:52;2.55;;;1.60;;
19149;SDS011;9707;49.158;8.632;2022-11-20T07:33:18;3.30;;;1.85;;
19149;SDS011;9707;49.158;8.632;2022-11-20T07:35:44;3.35;;;1.65;;
19149;SDS011;9707;49.158;8.632;2022-11-20T07:38:10;3.55;;;1.90;;
19149;SDS011;9707;49.158;8.632;2022-11-20T07:40:35;4.00;;;2.65;;
19149;SDS011;9707;49.158;8.632;2022-11-20T07:43:00;3.17;;;2.08;;
19149;SDS011;9707;49.158;8.632;2022-11-20T07:45:25;3.75;;;1.80;;
19149;SDS011;9707;49.158;8.632;2022-11-20T07:47:51;2.20;;;1.70;;
19149;SDS011;9707;49.158;8.632;2022-11-20T07:50:16;2.20;;;1.52;;
19149;SDS011;9707;49.158;8.632;2022-11-20T07:52:42;2.75;;;1.92;;
19149;SDS011;9707;49.158;8.632;2022-11-20T07:55:08;2.45;;;1.60;;
19149;SDS011;9707;49.158;8.632;2022-11-20T07:57:35;1.55;;;1.45;;
19149;SDS011;9707;49.158;8.632;2022-11-20T08:00:00;2.75;;;1.50;;
19149;SDS011;9707;49.158;8.632;2022-11-20T08:02:27;2.60;;;1.52;;
19149;SDS011;9707;49.158;8.632;2022-11-20T08:04:52;3.35;;;1.50;;
19149;SDS011;9707;49.158;8.632;2022-11-20T08:07:17;1.42;;;1.25;;
19149;SDS011;9707;49.158;8.632;2022-11-20T08:09:43;3.45;;;1.50;;
19149;SDS011;9707;49.158;8.632;2022-11-20T08:12:08;4.30;;;1.70;;
19149;SDS011;9707;49.158;8.632;2022-11-20T08:15:01;3.08;;;1.83;;
19149;SDS011;9707;49.158;8.632;2022-11-20T08:17:26;1.75;;;1.35;;
19149;SDS011;9707;49.158;8.632;2022-11-20T08:19:52;2.90;;;1.50;;
19149;SDS011;9707;49.158;8.632;2022-11-20T08:22:17;3.75;;;1.50;;
19149;SDS011;9707;49.158;8.632;2022-11-20T08:24:42;2.42;;;1.80;;
19149;SDS011;9707;49.158;8.632;2022-11-20T08:27:07;2.67;;;1.75;;
19149;SDS011;9707;49.158;8.632;2022-11-20T08:29:33;3.55;;;1.60;;
19149;SDS011;9707;49.158;8.632;2022-11-20T08:31:58;2.60;;;1.60;;
19149;SDS011;9707;49.158;8.632;2022-11-20T08:34:23;2.58;;;1.75;;
19149;SDS011;9707;49.158;8.632;2022-11-20T08:36:49;4.15;;;1.77;;
19149;SDS011;9707;49.158;8.632;2022-11-20T08:39:14;2.38;;;1.50;;
19149;SDS011;9707;49.158;8.632;2022-11-20T08:41:39;3.45;;;1.67;;
19149;SDS011;9707;49.158;8.632;2022-11-20T08:44:06;2.20;;;1.75;;
19149;SDS011;9707;49.158;8.632;2022-11-20T08:46:33;2.30;;;1.80;;
19149;SDS011;9707;49.158;8.632;2022-11-20T08:49:02;3.88;;;2.10;;
19149;SDS011;9707;49.158;8.632;2022-11-20T08:51:29;2.95;;;2.25;;
19149;SDS011;9707;49.158;8.632;2022-11-20T08:53:54;3.95;;;1.95;;
19149;SDS011;9707;49.158;8.632;2022-11-20T08:56:19;2.60;;;1.92;;
19149;SDS011;9707;49.158;8.632;2022-11-20T08:58:45;4.20;;;2.05;;
19149;SDS011;9707;49.158;8.632;2022-11-20T09:01:10;3.17;;;2.10;;
19149;SDS011;9707;49.158;8.632;2022-11-20T09:03:36;2.75;;;1.80;;
19149;SDS011;9707;49.158;8.632;2022-11-20T09:06:02;3.03;;;2.17;;
19149;SDS011;9707;49.158;8.632;2022-11-20T09:08:29;2.55;;;1.92;;
19149;SDS011;9707;49.158;8.632;2022-11-20T09:10:55;3.13;;;2.10;;
19149;SDS011;9707;49.158;8.632;2022-11-20T09:13:21;3.78;;;2.20;;
19149;SDS011;9707;49.158;8.632;2022-11-20T09:15:54;4.40;;;2.17;;
19149;SDS011;9707;49.158;8.632;2022-11-20T09:18:20;3.08;;;2.00;;
19149;SDS011;9707;49.158;8.632;2022-11-20T09:20:45;2.70;;;2.20;;
19149;SDS011;9707;49.158;8.632;2022-11-20T09:23:10;4.80;;;2.08;;
19149;SDS011;9707;49.158;8.632;2022-11-20T09:25:36;3.70;;;2.20;;
19149;SDS011;9707;49.158;8.632;2022-11-20T09:28:01;3.45;;;2.08;;
19149;SDS011;9707;49.158;8.632;2022-11-20T09:30:26;3.63;;;2.35;;
19149;SDS011;9707;49.158;8.632;2022-11-20T09:32:52;3.13;;;1.92;;
19149;SDS011;9707;49.158;8.632;2022-11-20T09:35:18;2.53;;;2.33;;
19149;SDS011;9707;49.158;8.632;2022-11-20T09:37:43;2.35;;;1.80;;
19149;SDS011;9707;49.158;8.632;2022-11-20T09:40:30;4.13;;;2.00;;
19149;SDS011;9707;49.158;8.632;2022-11-20T09:51:25;3.45;;;1.85;;
19149;SDS011;9707;49.158;8.632;2022-11-20T09:54:11;4.55;;;1.83;;
19149;SDS011;9707;49.158;8.632;2022-11-20T09:56:42;3.13;;;2.10;;
19149;SDS011;9707;49.158;8.632;2022-11-20T09:59:29;6.47;;;2.17;;
19149;SDS011;9707;49.158;8.632;2022-11-20T10:02:00;4.15;;;2.10;;
19149;SDS011;9707;49.158;8.632;2022-11-20T10:04:28;2.13;;;1.90;;
19149;SDS011;9707;49.158;8.632;2022-11-20T10:09:40;3.05;;;1.92;;
19149;SDS011;9707;49.158;8.632;2022-11-20T10:12:17;3.22;;;2.05;;
19149;SDS011;9707;49.158;8.632;2022-11-20T10:17:48;4.10;;;2.38;;
19149;SDS011;9707;49.158;8.632;2022-11-20T10:20:53;3.83;;;2.20;;
19149;SDS011;9707;49.158;8.632;2022-11-20T10:23:44;3.30;;;2.15;;
19149;SDS011;9707;49.158;8.632;2022-11-20T10:29:21;3.03;;;1.70;;
19149;SDS011;9707;49.158;8.632;2022-11-20T10:32:02;2.45;;;1.98;;
19149;SDS011;9707;49.158;8.632;2022-11-20T10:37:18;2.17;;;1.63;;
19149;SDS011;9707;49.158;8.632;2022-11-20T10:39:54;3.90;;;2.03;;
19149;SDS011;9707;49.158;8.632;2022-11-20T10:42:30;3.42;;;2.00;;
19149;SDS011;9707;49.158;8.632;2022-11-20T10:45:14;2.20;;;1.80;;
19149;SDS011;9707;49.158;8.632;2022-11-20T10:47:46;3.13;;;1.90;;
19149;SDS011;9707;49.158;8.632;2022-11-20T10:50:14;2.25;;;1.73;;
19149;SDS011;9707;49.158;8.632;2022-11-20T10:55:45;4.07;;;2.03;;
19149;SDS011;9707;49.158;8.632;2022-11-20T11:01:18;3.95;;;2.50;;
19149;SDS011;9707;49.158;8.632;2022-11-20T11:03:48;3.97;;;2.17;;
19149;SDS011;9707;49.158;8.632;2022-11-20T11:06:28;4.50;;;2.28;;
19149;SDS011;9707;49.158;8.632;2022-11-20T11:09:02;3.78;;;2.35;;
19149;SDS011;9707;49.158;8.632;2022-11-20T11:11:35;4.68;;;2.42;;
19149;SDS011;9707;49.158;8.632;2022-11-20T11:14:06;2.38;;;1.90;;
19149;SDS011;9707;49.158;8.632;2022-11-20T11:16:33;5.25;;;1.95;;
19149;SDS011;9707;49.158;8.632;2022-11-20T11:21:30;3.83;;;2.22;;
19149;SDS011;9707;49.158;8.632;2022-11-20T11:23:57;4.25;;;2.30;;
19149;SDS011;9707;49.158;8.632;2022-11-20T11:26:24;3.30;;;2.05;;
19149;SDS011;9707;49.158;8.632;2022-11-20T11:29:00;4.78;;;1.95;;
19149;SDS011;9707;49.158;8.632;2022-11-20T11:31:30;5.22;;;2.03;;
19149;SDS011;9707;49.158;8.632;2022-11-20T11:34:12;3.40;;;1.90;;
19149;SDS011;9707;49.158;8.632;2022-11-20T11:36:39;5.85;;;2.67;;
19149;SDS011;9707;49.158;8.632;2022-11-20T11:39:05;3.92;;;1.70;;
19149;SDS011;9707;49.158;8.632;2022-11-20T11:41:36;4.95;;;1.90;;
19149;SDS011;9707;49.158;8.632;2022-11-20T11:44:44;4.85;;;2.25;;
19149;SDS011;9707;49.158;8.632;2022-11-20T11:47:22;6.32;;;2.45;;
19149;SDS011;9707;49.158;8.632;2022-11-20T11:52:48;4.88;;;2.10;;
19149;SDS011;9707;49.158;8.632;2022-11-20T12:00:47;2.42;;;1.10;;
19149;SDS011;9707;49.158;8.632;2022-11-20T12:03:20;2.42;;;1.20;;
19149;SDS011;9707;49.158;8.632;2022-11-20T12:05:59;5.57;;;2.28;;
19149;SDS011;9707;49.158;8.632;2022-11-20T12:08:40;3.85;;;1.70;;
19149;SDS011;9707;49.158;8.632;2022-11-20T12:11:23;6.15;;;1.75;;
19149;SDS011;9707;49.158;8.632;2022-11-20T12:13:58;6.55;;;2.50;;
19149;SDS011;9707;49.158;8.632;2022-11-20T12:16:30;8.40;;;1.77;;
19149;SDS011;9707;49.158;8.632;2022-11-20T12:18:59;4.75;;;1.60;;
19149;SDS011;9707;49.158;8.632;2022-11-20T12:21:34;3.10;;;1.55;;
19149;SDS011;9707;49.158;8.632;2022-11-20T12:30:17;3.45;;;1.20;;
19149;SDS011;9707;49.158;8.632;2022-11-20T12:35:40;2.78;;;1.30;;
19149;SDS011;9707;49.158;8.632;2022-11-20T12:41:27;4.07;;;0.90;;
19149;SDS011;9707;49.158;8.632;2022-11-20T12:47:31;3.47;;;1.60;;
19149;SDS011;9707;49.158;8.632;2022-11-20T12:52:42;3.67;;;1.10;;
19149;SDS011;9707;49.158;8.632;2022-11-20T12:55:39;2.85;;;1.10;;
19149;SDS011;9707;49.158;8.632;2022-11-20T12:58:27;1.98;;;0.90;;
19149;SDS011;9707;49.158;8.632;2022-11-20T13:01:24;2.63;;;0.60;;
19149;SDS011;9707;49.158;8.632;2022-11-20T13:06:55;4.15;;;0.90;;
19149;SDS011;9707;49.158;8.632;2022-11-20T13:09:21;4.25;;;0.98;;
19149;SDS011;9707;49.158;8.632;2022-11-20T13:14:53;3.63;;;1.17;;
19149;SDS011;9707;49.158;8.632;2022-11-20T13:19:54;1.92;;;0.93;;
19149;SDS011;9707;49.158;8.632;2022-11-20T13:22:42;4.05;;;1.00;;
19149;SDS011;9707;49.158;8.632;2022-11-20T13:25:22;2.92;;;0.90;;
19149;SDS011;9707;49.158;8.632;2022-11-20T13:28:03;3.13;;;0.82;;
19149;SDS011;9707;49.158;8.632;2022-11-20T13:30:49;1.42;;;0.73;;
19149;SDS011;9707;49.158;8.632;2022-11-20T13:33:23;3.72;;;1.30;;
19149;SDS011;9707;49.158;8.632;2022-11-20T13:36:00;2.95;;;0.90;;
19149;SDS011;9707;49.158;8.632;2022-11-20T13:38:27;3.67;;;1.00;;
19149;SDS011;9707;49.158;8.632;2022-11-20T13:40:54;1.75;;;1.00;;
19149;SDS011;9707;49.158;8.632;2022-11-20T13:43:42;2.60;;;1.05;;
19149;SDS011;9707;49.158;8.632;2022-11-20T13:46:08;2.20;;;1.10;;
19149;SDS011;9707;49.158;8.632;2022-11-20T13:48:44;4.10;;;1.10;;
19149;SDS011;9707;49.158;8.632;2022-11-20T13:54:06;3.00;;;0.90;;
19149;SDS011;9707;49.158;8.632;2022-11-20T13:59:40;1.90;;;0.80;;
19149;SDS011;9707;49.158;8.632;2022-11-20T14:02:21;2.95;;;1.33;;
19149;SDS011;9707;49.158;8.632;2022-11-20T14:04:51;1.38;;;0.80;;
19149;SDS011;9707;49.158;8.632;2022-11-20T14:07:18;2.00;;;0.90;;
19149;SDS011;9707;49.158;8.632;2022-11-20T14:09:56;4.00;;;1.65;;
19149;SDS011;9707;49.158;8.632;2022-11-20T14:12:26;2.67;;;0.77;;
19149;SDS011;9707;49.158;8.632;2022-11-20T14:14:53;3.08;;;0.82;;
19149;SDS011;9707;49.158;8.632;2022-11-20T14:17:24;5.85;;;1.42;;
19149;SDS011;9707;49.158;8.632;2022-11-20T14:19:54;1.92;;;0.65;;
19149;SDS011;9707;49.158;8.632;2022-11-20T14:22:24;2.97;;;0.93;;
19149;SDS011;9707;49.158;8.632;2022-11-20T14:27:43;2.08;;;0.82;;
19149;SDS011;9707;49.158;8.632;2022-11-20T14:30:14;3.85;;;0.90;;
19149;SDS011;9707;49.158;8.632;2022-11-20T14:32:43;2.17;;;0.82;;
19149;SDS011;9707;49.158;8.632;2022-11-20T14:35:13;2.60;;;0.70;;
19149;SDS011;9707;49.158;8.632;2022-11-20T14:37:45;2.50;;;0.60;;
19149;SDS011;9707;49.158;8.632;2022-11-20T14:40:24;4.10;;;0.90;;
19149;SDS011;9707;49.158;8.632;2022-11-20T14:42:57;4.18;;;0.90;;
19149;SDS011;9707;49.158;8.632;2022-11-20T14:45:23;2.80;;;0.80;;
19149;SDS011;9707;49.158;8.632;2022-11-20T14:47:50;2.75;;;0.75;;
19149;SDS011;9707;49.158;8.632;2022-11-20T14:50:25;3.75;;;0.90;;
19149;SDS011;9707;49.158;8.632;2022-11-20T14:52:54;3.08;;;1.30;;
19149;SDS011;9707;49.158;8.632;2022-11-20T14:55:27;2.88;;;1.08;;
19149;SDS011;9707;49.158;8.632;2022-11-20T14:58:06;3.25;;;1.20;;
19149;SDS011;9707;49.158;8.632;2022-11-20T15:00:53;3.95;;;1.45;;
19149;SDS011;9707;49.158;8.632;2022-11-20T15:03:30;2.22;;;1.23;;
19149;SDS011;9707;49.158;8.632;2022-11-20T15:05:59;5.75;;;1.08;;
19149;SDS011;9707;49.158;8.632;2022-11-20T15:08:25;4.97;;;2.47;;
19149;SDS011;9707;49.158;8.632;2022-11-20T15:10:51;7.05;;;1.80;;
19149;SDS011;9707;49.158;8.632;2022-11-20T15:13:19;4.65;;;1.80;;
19149;SDS011;9707;49.158;8.632;2022-11-20T15:15:52;3.97;;;1.45;;
19149;SDS011;9707;49.158;8.632;2022-11-20T15:18:21;3.35;;;1.77;;
19149;SDS011;9707;49.158;8.632;2022-11-20T15:20:50;1.85;;;1.20;;
19149;SDS011;9707;49.158;8.632;2022-11-20T15:23:16;3.65;;;1.40;;
19149;SDS011;9707;49.158;8.632;2022-11-20T15:25:43;6.68;;;1.23;;
19149;SDS011;9707;49.158;8.632;2022-11-20T15:28:16;2.90;;;1.60;;
19149;SDS011;9707;49.158;8.632;2022-11-20T15:30:44;3.45;;;1.30;;
19149;SDS011;9707;49.158;8.632;2022-11-20T15:33:11;3.97;;;1.25;;
19149;SDS011;9707;49.158;8.632;2022-11-20T15:35:37;2.83;;;0.93;;
19149;SDS011;9707;49.158;8.632;2022-11-20T15:38:02;1.88;;;1.00;;
19149;SDS011;9707;49.158;8.632;2022-11-20T15:40:28;1.70;;;0.80;;
19149;SDS011;9707;49.158;8.632;2022-11-20T15:42:53;3.60;;;1.25;;
19149;SDS011;9707;49.158;8.632;2022-11-20T15:45:28;2.65;;;0.80;;
19149;SDS011;9707;49.158;8.632;2022-11-20T15:48:03;2.10;;;0.95;;
19149;SDS011;9707;49.158;8.632;2022-11-20T15:50:36;3.55;;;0.93;;
19149;SDS011;9707;49.158;8.632;2022-11-20T15:53:03;4.13;;;1.30;;
19149;SDS011;9707;49.158;8.632;2022-11-20T15:55:30;2.00;;;1.10;;
19149;SDS011;9707;49.158;8.632;2022-11-20T15:57:55;3.53;;;1.00;;
19149;SDS011;9707;49.158;8.632;2022-11-20T16:00:20;2.65;;;1.20;;
19149;SDS011;9707;49.158;8.632;2022-11-20T16:02:46;1.70;;;0.90;;
19149;SDS011;9707;49.158;8.632;2022-11-20T16:05:11;4.78;;;1.15;;
19149;SDS011;9707;49.158;8.632;2022-11-20T16:07:38;2.22;;;1.17;;
19149;SDS011;9707;49.158;8.632;2022-11-20T16:10:04;3.85;;;0.80;;
19149;SDS011;9707;49.158;8.632;2022-11-20T16:12:29;2.28;;;0.60;;
19149;SDS011;9707;49.158;8.632;2022-11-20T16:15:13;2.58;;;0.70;;
19149;SDS011;9707;49.158;8.632;2022-11-20T16:17:57;1.67;;;0.73;;
19149;SDS011;9707;49.158;8.632;2022-11-20T16:20:22;2.20;;;0.90;;
19149;SDS011;9707;49.158;8.632;2022-11-20T16:22:48;2.83;;;1.23;;
19149;SDS011;9707;49.158;8.632;2022-11-20T16:25:13;1.73;;;0.80;;
19149;SDS011;9707;49.158;8.632;2022-11-20T16:27:38;3.30;;;0.90;;
19149;SDS011;9707;49.158;8.632;2022-11-20T16:30:04;2.50;;;1.05;;